createdAt,value
2017-10-13T00:01:12.120Z,10.80
2017-10-13T00:03:14.772Z,10.80
2017-10-13T00:05:17.487Z,10.80
2017-10-13T00:07:21.179Z,10.90
2017-10-13T00:09:23.846Z,10.80
2017-10-13T00:11:26.594Z,10.80
2017-10-13T00:13:29.367Z,10.80
2017-10-13T00:15:32.048Z,10.80
2017-10-13T00:17:35.117Z,10.80
2017-10-13T00:19:37.787Z,10.80
2017-10-13T00:21:40.452Z,10.90
2017-10-13T00:23:43.245Z,10.80
2017-10-13T00:25:46.338Z,10.70
2017-10-13T00:27:49.124Z,10.60
2017-10-13T00:29:52.039Z,10.60
2017-10-13T00:31:54.872Z,10.50
2017-10-13T00:33:57.640Z,10.40
2017-10-13T00:36:00.451Z,10.40
2017-10-13T00:38:03.319Z,10.50
2017-10-13T00:40:06.125Z,10.50
2017-10-13T00:42:08.799Z,10.50
2017-10-13T00:44:11.505Z,10.50
2017-10-13T00:46:14.980Z,10.50
2017-10-13T00:48:17.739Z,10.50
2017-10-13T00:50:20.496Z,10.50
2017-10-13T00:52:23.228Z,10.50
2017-10-13T00:54:26.780Z,10.50
2017-10-13T00:56:29.484Z,10.50
2017-10-13T00:58:32.453Z,10.50
2017-10-13T01:00:35.413Z,10.40
2017-10-13T01:02:38.093Z,10.50
2017-10-13T01:04:41.042Z,10.50
2017-10-13T01:06:44.499Z,10.40
2017-10-13T01:08:47.257Z,10.40
2017-10-13T01:10:50.315Z,10.40
2017-10-13T01:12:52.994Z,10.40
2017-10-13T01:14:55.892Z,10.40
2017-10-13T01:16:58.620Z,10.40
2017-10-13T01:19:01.309Z,10.40
2017-10-13T01:21:04.948Z,10.30
2017-10-13T01:23:07.675Z,10.30
2017-10-13T01:25:11.192Z,10.40
2017-10-13T01:27:13.908Z,10.40
2017-10-13T01:29:16.800Z,10.40
2017-10-13T01:31:19.564Z,10.40
2017-10-13T01:33:22.326Z,10.30
2017-10-13T01:35:25.128Z,10.40
2017-10-13T01:37:27.828Z,10.30
2017-10-13T01:39:30.661Z,10.30
2017-10-13T01:41:34.427Z,10.40
2017-10-13T01:43:37.895Z,10.30
2017-10-13T01:45:40.907Z,10.30
2017-10-13T01:47:44.380Z,10.30
2017-10-13T01:49:47.222Z,10.30
2017-10-13T01:51:50.009Z,10.40
2017-10-13T01:53:52.737Z,10.40
2017-10-13T01:55:56.311Z,10.50
2017-10-13T01:57:58.978Z,10.50
2017-10-13T02:00:01.726Z,10.60
2017-10-13T02:02:04.557Z,10.60
2017-10-13T02:04:07.232Z,10.70
2017-10-13T02:06:09.972Z,10.80
2017-10-13T02:08:12.655Z,10.90
2017-10-13T02:10:15.499Z,10.90
2017-10-13T02:12:18.475Z,11.00
2017-10-13T02:14:21.151Z,11.10
2017-10-13T02:16:24.812Z,11.20
2017-10-13T02:18:27.514Z,11.10
2017-10-13T02:20:31.145Z,11.30
2017-10-13T02:22:33.813Z,11.30
2017-10-13T02:24:36.512Z,11.30
2017-10-13T02:26:39.200Z,11.30
2017-10-13T02:28:41.872Z,11.40
2017-10-13T02:30:44.730Z,11.40
2017-10-13T02:32:47.605Z,11.50
2017-10-13T02:34:50.313Z,11.50
2017-10-13T02:36:53.170Z,11.50
2017-10-13T02:38:55.865Z,11.40
2017-10-13T02:40:58.582Z,11.40
2017-10-13T02:43:02.087Z,11.40
2017-10-13T02:45:05.525Z,11.50
2017-10-13T02:47:08.222Z,11.50
2017-10-13T02:49:10.966Z,11.50
2017-10-13T02:51:13.748Z,11.50
2017-10-13T02:53:16.459Z,11.60
2017-10-13T02:55:19.164Z,11.60
2017-10-13T02:57:22.696Z,11.70
2017-10-13T02:59:25.352Z,11.70
2017-10-13T03:01:28.062Z,11.70
2017-10-13T03:03:31.133Z,11.70
2017-10-13T03:05:33.791Z,11.70
2017-10-13T03:07:36.485Z,11.70
2017-10-13T03:09:39.159Z,11.60
2017-10-13T03:11:41.818Z,11.60
2017-10-13T03:13:45.639Z,11.70
2017-10-13T03:15:48.304Z,11.60
2017-10-13T03:17:51.199Z,11.70
2017-10-13T03:19:54.636Z,11.70
2017-10-13T03:21:58.227Z,11.60
2017-10-13T03:24:01.039Z,11.60
2017-10-13T03:26:04.575Z,11.60
2017-10-13T03:28:07.425Z,11.60
2017-10-13T03:30:10.942Z,11.60
2017-10-13T03:32:13.717Z,11.60
2017-10-13T03:34:16.376Z,11.60
2017-10-13T03:36:19.093Z,11.60
2017-10-13T03:38:21.794Z,11.60
2017-10-13T03:40:24.472Z,11.70
2017-10-13T03:42:27.307Z,11.60
2017-10-13T03:44:30.098Z,11.70
2017-10-13T03:46:32.846Z,11.70
2017-10-13T03:48:35.613Z,11.80
2017-10-13T03:50:39.062Z,11.70
2017-10-13T03:52:41.815Z,11.70
2017-10-13T03:54:44.625Z,11.70
2017-10-13T03:56:47.287Z,11.70
2017-10-13T03:58:50.146Z,11.70
2017-10-13T04:00:52.839Z,11.80
2017-10-13T04:02:55.518Z,11.80
2017-10-13T04:04:58.347Z,11.80
2017-10-13T04:07:01.145Z,11.80
2017-10-13T04:09:03.871Z,11.80
2017-10-13T04:11:06.622Z,11.90
2017-10-13T04:13:09.390Z,12.00
2017-10-13T04:15:12.077Z,12.00
2017-10-13T04:17:14.912Z,12.00
2017-10-13T04:19:18.372Z,12.00
2017-10-13T04:21:21.264Z,12.00
2017-10-13T04:23:25.427Z,12.00
2017-10-13T04:25:28.392Z,12.00
2017-10-13T04:27:31.130Z,12.10
2017-10-13T04:29:33.783Z,12.10
2017-10-13T04:31:36.557Z,12.20
2017-10-13T04:33:39.196Z,12.30
2017-10-13T04:35:42.774Z,12.30
2017-10-13T04:37:46.335Z,12.40
2017-10-13T04:39:48.985Z,12.30
2017-10-13T04:41:51.660Z,12.40
2017-10-13T04:43:54.446Z,12.40
2017-10-13T04:45:57.465Z,12.40
2017-10-13T04:48:00.310Z,12.30
2017-10-13T04:50:02.997Z,12.40
2017-10-13T04:52:05.659Z,12.50
2017-10-13T04:54:08.339Z,12.50
2017-10-13T04:56:11.043Z,12.60
2017-10-13T04:58:13.779Z,12.60
2017-10-13T05:00:16.462Z,12.60
2017-10-13T05:02:19.305Z,12.60
2017-10-13T05:04:21.946Z,12.60
2017-10-13T05:06:24.883Z,12.60
2017-10-13T05:08:28.694Z,12.60
2017-10-13T05:10:31.344Z,12.60
2017-10-13T05:12:35.540Z,12.60
2017-10-13T05:14:38.216Z,12.60
2017-10-13T05:16:40.979Z,12.70
2017-10-13T05:18:43.677Z,12.70
2017-10-13T05:20:46.330Z,12.70
2017-10-13T05:22:49.085Z,12.70
2017-10-13T05:24:51.753Z,12.60
2017-10-13T05:26:54.661Z,12.50
2017-10-13T05:28:57.331Z,12.40
2017-10-13T05:31:00.535Z,12.40
2017-10-13T05:33:03.208Z,12.30
2017-10-13T05:35:05.879Z,12.30
2017-10-13T05:37:08.620Z,12.30
2017-10-13T05:39:11.353Z,12.40
2017-10-13T05:41:14.042Z,12.30
2017-10-13T05:43:16.780Z,12.30
2017-10-13T05:45:19.426Z,12.30
2017-10-13T05:47:22.088Z,12.40
2017-10-13T05:49:25.624Z,12.50
2017-10-13T05:51:28.274Z,12.60
2017-10-13T05:53:30.953Z,12.60
2017-10-13T05:55:33.660Z,12.60
2017-10-13T05:57:36.309Z,12.60
2017-10-13T05:59:39.609Z,12.60
2017-10-13T06:01:42.368Z,12.70
2017-10-13T06:03:45.790Z,12.70
2017-10-13T06:05:49.278Z,12.70
2017-10-13T06:07:52.003Z,12.70
2017-10-13T06:09:54.662Z,12.80
2017-10-13T06:11:57.341Z,12.80
2017-10-13T06:14:00.060Z,12.90
2017-10-13T06:16:02.753Z,12.90
2017-10-13T06:18:05.409Z,12.80
2017-10-13T06:20:08.967Z,12.90
2017-10-13T06:22:11.701Z,12.80
2017-10-13T06:24:14.378Z,12.80
2017-10-13T06:26:17.144Z,12.90
2017-10-13T06:28:19.816Z,12.90
2017-10-13T06:30:22.739Z,12.90
2017-10-13T06:32:25.550Z,12.90
2017-10-13T06:34:28.276Z,12.90
2017-10-13T06:36:30.981Z,13.00
2017-10-13T06:38:33.732Z,13.00
2017-10-13T06:40:36.393Z,13.00
2017-10-13T06:42:39.095Z,13.10
2017-10-13T06:44:41.811Z,13.10
2017-10-13T06:46:44.635Z,13.30
2017-10-13T06:48:47.285Z,13.50
2017-10-13T06:50:51.117Z,13.40
2017-10-13T06:52:54.006Z,13.40
2017-10-13T06:54:56.693Z,13.30
2017-10-13T06:56:59.426Z,13.30
2017-10-13T06:59:03.988Z,13.60
2017-10-13T07:01:06.788Z,13.60
2017-10-13T07:03:09.811Z,14.00
2017-10-13T07:05:13.537Z,15.60
2017-10-13T07:07:16.198Z,15.60
2017-10-13T07:09:20.390Z,16.60
2017-10-13T07:11:23.423Z,17.30
2017-10-13T07:13:26.097Z,18.10
2017-10-13T07:15:28.874Z,18.50
2017-10-13T07:17:31.561Z,19.10
2017-10-13T07:19:34.317Z,19.00
2017-10-13T07:21:37.097Z,20.00
2017-10-13T07:23:39.798Z,19.80
2017-10-13T07:25:42.507Z,20.20
2017-10-13T07:27:45.282Z,20.00
2017-10-13T07:29:47.944Z,19.80
2017-10-13T07:31:50.616Z,20.10
2017-10-13T07:33:53.332Z,19.40
2017-10-13T07:35:56.759Z,19.80
2017-10-13T07:37:59.405Z,19.80
2017-10-13T07:40:02.857Z,20.80
2017-10-13T07:42:05.584Z,20.80
2017-10-13T07:44:08.268Z,18.60
2017-10-13T07:46:10.956Z,17.50
2017-10-13T07:50:18.663Z,15.90
2017-10-13T07:52:21.386Z,15.90
2017-10-13T07:54:24.036Z,16.00
2017-10-13T07:56:26.700Z,15.80
2017-10-13T07:58:30.521Z,16.00
2017-10-13T08:00:33.187Z,15.90
2017-10-13T08:02:35.868Z,16.80
2017-10-13T08:04:38.551Z,18.40
2017-10-13T08:06:41.215Z,18.20
2017-10-13T08:08:43.911Z,17.50
2017-10-13T08:10:46.607Z,17.00
2017-10-13T08:12:49.326Z,16.50
2017-10-13T08:14:52.022Z,16.20
2017-10-13T08:16:54.706Z,16.10
2017-10-13T08:18:57.400Z,16.00
2017-10-13T08:21:00.053Z,16.00
2017-10-13T08:23:03.557Z,16.10
2017-10-13T08:25:06.312Z,16.10
2017-10-13T08:27:09.041Z,16.10
2017-10-13T08:29:12.557Z,16.20
2017-10-13T08:31:15.225Z,16.10
2017-10-13T08:33:18.856Z,16.10
2017-10-13T08:35:21.532Z,16.10
2017-10-13T08:37:24.211Z,16.20
2017-10-13T08:39:26.911Z,16.20
2017-10-13T08:41:29.622Z,16.10
2017-10-13T08:43:33.103Z,16.50
2017-10-13T08:45:36.540Z,16.60
2017-10-13T08:47:39.220Z,16.60
2017-10-13T08:49:41.886Z,16.60
2017-10-13T08:51:44.550Z,16.70
2017-10-13T08:53:48.080Z,17.00
2017-10-13T08:55:50.785Z,17.00
2017-10-13T08:57:53.478Z,16.90
2017-10-13T08:59:56.248Z,16.90
2017-10-13T09:01:58.915Z,17.10
2017-10-13T09:04:01.595Z,18.90
2017-10-13T09:06:04.393Z,21.70
2017-10-13T09:08:07.825Z,23.20
2017-10-13T09:10:10.557Z,23.20
2017-10-13T09:12:13.272Z,23.20
2017-10-13T09:14:16.059Z,22.20
2017-10-13T09:16:18.722Z,20.80
2017-10-13T09:18:21.419Z,19.40
2017-10-13T09:20:24.142Z,18.70
2017-10-13T09:22:32.550Z,18.30
2017-10-13T09:24:36.018Z,17.60
2017-10-13T09:26:38.840Z,17.60
2017-10-13T09:28:42.252Z,17.20
2017-10-13T09:30:45.044Z,17.20
2017-10-13T09:32:47.772Z,17.00
2017-10-13T09:34:50.456Z,17.10
2017-10-13T09:36:53.149Z,17.30
2017-10-13T09:38:56.615Z,18.10
2017-10-13T09:40:59.356Z,18.10
2017-10-13T09:43:02.144Z,18.90
2017-10-13T09:45:04.829Z,19.80
2017-10-13T09:47:07.497Z,20.80
2017-10-13T09:49:10.183Z,20.10
2017-10-13T09:51:12.880Z,19.80
2017-10-13T09:53:15.588Z,19.70
2017-10-13T09:55:19.106Z,18.70
2017-10-13T09:57:21.766Z,18.70
2017-10-13T09:59:24.499Z,18.70
2017-10-13T10:01:27.193Z,18.70
2017-10-13T10:03:29.944Z,18.70
2017-10-13T10:05:32.672Z,20.00
2017-10-13T10:07:35.345Z,20.50
2017-10-13T10:09:38.917Z,20.20
2017-10-13T10:11:41.584Z,20.20
2017-10-13T10:13:45.871Z,19.60
2017-10-13T10:15:48.559Z,19.60
2017-10-13T10:17:51.307Z,21.00
2017-10-13T10:19:53.963Z,20.40
2017-10-13T10:21:57.374Z,18.90
2017-10-13T10:24:00.106Z,18.90
2017-10-13T10:26:02.768Z,18.60
2017-10-13T10:28:05.448Z,18.50
2017-10-13T10:30:08.303Z,18.70
2017-10-13T10:32:10.953Z,20.80
2017-10-13T10:34:13.775Z,22.10
2017-10-13T10:36:17.026Z,23.00
2017-10-13T10:38:19.727Z,22.70
2017-10-13T10:40:22.410Z,22.90
2017-10-13T10:42:25.061Z,21.90
2017-10-13T10:44:27.811Z,20.90
2017-10-13T10:46:31.261Z,19.30
2017-10-13T10:48:33.912Z,19.30
2017-10-13T10:50:36.728Z,19.40
2017-10-13T10:52:39.452Z,19.50
2017-10-13T10:54:42.344Z,19.40
2017-10-13T10:56:45.029Z,19.60
2017-10-13T10:58:47.719Z,20.20
2017-10-13T11:00:50.424Z,20.70
2017-10-13T11:02:53.091Z,20.80
2017-10-13T11:04:55.810Z,20.70
2017-10-13T11:06:58.500Z,20.30
2017-10-13T11:09:01.164Z,20.10
2017-10-13T11:11:03.883Z,20.40
2017-10-13T11:13:06.566Z,20.30
2017-10-13T11:15:09.214Z,20.00
2017-10-13T11:17:11.938Z,20.10
2017-10-13T11:19:14.641Z,20.00
2017-10-13T11:21:18.149Z,19.80
2017-10-13T11:23:20.865Z,19.80
2017-10-13T11:25:23.514Z,19.80
2017-10-13T11:27:26.215Z,19.80
2017-10-13T11:29:28.968Z,20.70
2017-10-13T11:31:31.668Z,21.00
2017-10-13T11:33:34.522Z,20.80
2017-10-13T11:35:37.229Z,20.60
2017-10-13T11:37:39.885Z,20.60
2017-10-13T11:39:42.712Z,20.70
2017-10-13T11:41:46.148Z,20.20
2017-10-13T11:43:48.822Z,20.20
2017-10-13T11:45:51.475Z,20.40
2017-10-13T11:47:54.947Z,20.50
2017-10-13T11:49:58.416Z,20.50
2017-10-13T11:52:01.095Z,20.50
2017-10-13T11:54:03.826Z,20.10
2017-10-13T11:56:06.486Z,19.80
2017-10-13T11:58:10.160Z,19.60
2017-10-13T12:00:12.917Z,19.60
2017-10-13T12:02:15.557Z,19.60
2017-10-13T12:04:18.188Z,19.80
2017-10-13T12:06:20.925Z,19.70
2017-10-13T12:08:23.626Z,19.90
2017-10-13T12:10:26.315Z,20.30
2017-10-13T12:12:29.359Z,21.00
2017-10-13T12:14:32.037Z,20.80
2017-10-13T12:16:34.726Z,20.60
2017-10-13T12:18:38.467Z,20.50
2017-10-13T12:20:41.194Z,20.70
2017-10-13T12:22:44.072Z,21.10
2017-10-13T12:24:46.748Z,21.20
2017-10-13T12:26:49.452Z,21.20
2017-10-13T12:28:52.114Z,21.10
2017-10-13T12:30:54.845Z,21.00
2017-10-13T12:32:58.258Z,21.10
2017-10-13T12:35:00.926Z,21.10
2017-10-13T12:37:04.414Z,21.20
2017-10-13T12:39:07.817Z,21.40
2017-10-13T12:41:11.267Z,21.20
2017-10-13T12:43:13.951Z,21.10
2017-10-13T12:45:16.616Z,20.90
2017-10-13T12:47:19.300Z,20.70
2017-10-13T12:49:22.021Z,20.80
2017-10-13T12:51:24.707Z,20.60
2017-10-13T12:53:27.472Z,20.60
2017-10-13T12:55:30.226Z,20.60
2017-10-13T12:57:33.655Z,21.40
2017-10-13T12:59:36.306Z,21.30
2017-10-13T13:01:39.944Z,21.50
2017-10-13T13:03:42.611Z,21.50
2017-10-13T13:05:45.250Z,21.30
2017-10-13T13:07:48.743Z,20.30
2017-10-13T13:09:51.388Z,20.30
2017-10-13T13:11:54.138Z,20.20
2017-10-13T13:13:57.021Z,20.40
2017-10-13T13:15:59.694Z,20.20
2017-10-13T13:18:03.117Z,19.90
2017-10-13T13:20:05.795Z,19.90
2017-10-13T13:22:08.461Z,19.90
2017-10-13T13:24:11.221Z,19.90
2017-10-13T13:26:13.917Z,19.90
2017-10-13T13:28:16.593Z,20.00
2017-10-13T13:30:19.250Z,20.10
2017-10-13T13:32:21.944Z,19.90
2017-10-13T13:34:24.627Z,19.90
2017-10-13T13:36:27.275Z,20.10
2017-10-13T13:38:29.951Z,20.40
2017-10-13T13:40:32.629Z,20.10
2017-10-13T13:42:35.310Z,19.90
2017-10-13T13:44:39.068Z,19.70
2017-10-13T13:46:41.741Z,19.50
2017-10-13T13:48:44.394Z,19.60
2017-10-13T13:50:47.112Z,19.70
2017-10-13T13:52:50.517Z,19.70
2017-10-13T13:54:53.306Z,19.60
2017-10-13T13:56:56.025Z,19.80
2017-10-13T13:58:58.876Z,20.00
2017-10-13T14:01:01.557Z,20.20
2017-10-13T14:03:04.254Z,20.10
2017-10-13T14:05:06.960Z,20.00
2017-10-13T14:07:10.435Z,20.10
2017-10-13T14:09:13.140Z,20.10
2017-10-13T14:11:16.604Z,19.90
2017-10-13T14:13:19.368Z,19.80
2017-10-13T14:15:23.130Z,19.60
2017-10-13T14:17:25.920Z,19.60
2017-10-13T14:19:28.581Z,19.50
2017-10-13T14:21:31.315Z,19.60
2017-10-13T14:23:34.048Z,19.50
2017-10-13T14:25:36.734Z,19.50
2017-10-13T14:27:39.414Z,19.50
2017-10-13T14:29:42.076Z,19.40
2017-10-13T14:31:44.762Z,19.40
2017-10-13T14:33:47.451Z,19.30
2017-10-13T14:35:50.117Z,19.30
2017-10-13T14:37:52.891Z,19.30
2017-10-13T14:39:55.599Z,19.30
2017-10-13T14:41:58.253Z,19.20
2017-10-13T14:44:01.127Z,19.30
2017-10-13T14:46:03.809Z,19.40
2017-10-13T14:48:06.510Z,19.60
2017-10-13T14:50:09.201Z,19.50
2017-10-13T14:52:11.869Z,19.40
2017-10-13T14:54:16.329Z,19.40
2017-10-13T14:56:18.995Z,19.40
2017-10-13T14:58:22.686Z,19.20
2017-10-13T15:00:26.105Z,19.10
2017-10-13T15:02:28.793Z,19.00
2017-10-13T15:04:31.477Z,18.80
2017-10-13T15:06:34.145Z,18.70
2017-10-13T15:08:36.820Z,18.60
2017-10-13T15:10:39.484Z,18.60
2017-10-13T15:12:42.129Z,18.60
2017-10-13T15:14:45.066Z,18.70
2017-10-13T15:16:47.736Z,18.90
2017-10-13T15:18:50.508Z,19.00
2017-10-13T15:20:53.235Z,18.90
2017-10-13T15:22:55.877Z,18.70
2017-10-13T15:25:04.235Z,18.50
2017-10-13T15:27:13.515Z,18.30
2017-10-13T15:29:22.038Z,18.30
2017-10-13T15:31:30.498Z,18.20
2017-10-13T15:33:39.656Z,18.20
2017-10-13T15:35:48.084Z,18.20
2017-10-13T15:40:35.213Z,18.60
2017-10-13T15:42:43.740Z,18.60
2017-10-13T15:44:50.404Z,18.50
2017-10-13T15:46:58.752Z,18.40
2017-10-13T15:51:48.004Z,17.80
2017-10-13T15:53:50.703Z,17.80
2017-10-13T15:55:54.153Z,17.80
2017-10-13T15:57:56.918Z,17.80
2017-10-13T15:59:59.579Z,17.90
2017-10-13T16:02:02.262Z,17.80
2017-10-13T16:04:05.104Z,17.90
2017-10-13T16:06:07.789Z,17.90
2017-10-13T16:08:11.254Z,17.90
2017-10-13T16:10:14.008Z,17.80
2017-10-13T16:12:16.684Z,17.90
2017-10-13T16:14:19.420Z,17.80
2017-10-13T16:16:22.069Z,17.80
2017-10-13T16:18:24.767Z,17.80
2017-10-13T16:20:28.480Z,17.80
2017-10-13T16:22:31.901Z,17.80
2017-10-13T16:24:35.406Z,17.80
2017-10-13T16:26:38.173Z,17.80
2017-10-13T16:28:40.841Z,17.70
2017-10-13T16:30:43.525Z,17.70
2017-10-13T16:32:46.222Z,17.70
2017-10-13T16:34:48.965Z,17.70
2017-10-13T16:36:51.620Z,17.70
2017-10-13T16:38:55.075Z,17.60
2017-10-13T16:40:57.811Z,17.60
2017-10-13T16:43:00.897Z,17.60
2017-10-13T16:45:03.759Z,17.60
2017-10-13T16:47:07.164Z,17.50
2017-10-13T16:49:10.683Z,17.50
2017-10-13T16:51:13.366Z,17.50
2017-10-13T16:53:16.170Z,17.50
2017-10-13T16:55:19.007Z,17.50
2017-10-13T16:57:21.695Z,17.50
2017-10-13T16:59:24.369Z,17.50
2017-10-13T17:01:28.077Z,17.40
2017-10-13T17:03:30.722Z,17.40
2017-10-13T17:05:34.241Z,17.40
2017-10-13T17:07:36.950Z,17.40
2017-10-13T17:09:39.696Z,17.40
2017-10-13T17:11:43.365Z,17.40
2017-10-13T17:13:46.883Z,17.30
2017-10-13T17:15:49.664Z,17.30
2017-10-13T17:17:52.356Z,17.30
2017-10-13T17:19:55.196Z,17.30
2017-10-13T17:21:57.963Z,17.20
2017-10-13T17:24:00.667Z,17.20
2017-10-13T17:26:03.388Z,17.20
2017-10-13T17:28:06.085Z,17.10
2017-10-13T17:30:08.804Z,17.10
2017-10-13T17:32:11.604Z,17.10
2017-10-13T17:34:14.320Z,17.10
2017-10-13T17:36:17.815Z,17.10
2017-10-13T17:38:20.551Z,17.10
2017-10-13T17:40:23.315Z,17.10
2017-10-13T17:42:26.101Z,17.10
2017-10-13T17:44:28.826Z,17.00
2017-10-13T17:46:31.697Z,17.00
2017-10-13T17:48:34.457Z,17.00
2017-10-13T17:50:37.166Z,17.00
2017-10-13T17:52:39.888Z,17.00
2017-10-13T17:54:42.587Z,17.00
2017-10-13T17:56:45.261Z,17.00
2017-10-13T17:58:48.013Z,17.00
2017-10-13T18:00:51.005Z,16.90
2017-10-13T18:02:54.046Z,16.90
2017-10-13T18:04:57.871Z,16.90
2017-10-13T18:07:01.386Z,16.90
2017-10-13T18:09:04.167Z,16.90
2017-10-13T18:11:06.840Z,16.90
2017-10-13T18:13:09.625Z,17.00
2017-10-13T18:15:12.501Z,16.90
2017-10-13T18:17:15.335Z,16.90
2017-10-13T18:19:18.001Z,16.90
2017-10-13T18:21:20.698Z,16.90
2017-10-13T18:23:24.123Z,16.80
2017-10-13T18:25:26.788Z,16.80
2017-10-13T18:27:29.500Z,16.80
2017-10-13T18:29:32.913Z,16.80
2017-10-13T18:31:35.671Z,16.80
2017-10-13T18:33:38.368Z,16.80
2017-10-13T18:35:41.331Z,16.70
2017-10-13T18:37:44.038Z,16.70
2017-10-13T18:39:46.744Z,16.60
2017-10-13T18:41:50.263Z,16.60
2017-10-13T18:43:53.049Z,16.60
2017-10-13T18:45:55.782Z,16.50
2017-10-13T18:47:59.243Z,16.40
2017-10-13T18:50:01.895Z,16.30
2017-10-13T18:52:04.598Z,16.20
2017-10-13T18:54:07.275Z,16.20
2017-10-13T18:56:09.921Z,16.00
2017-10-13T18:58:12.724Z,16.00
2017-10-13T19:00:15.479Z,16.00
2017-10-13T19:02:18.161Z,15.90
2017-10-13T19:04:20.936Z,15.90
2017-10-13T19:06:23.616Z,15.80
2017-10-13T19:08:26.489Z,15.70
2017-10-13T19:10:29.197Z,15.80
2017-10-13T19:12:31.875Z,15.70
2017-10-13T19:14:34.574Z,15.70
2017-10-13T19:16:38.052Z,15.80
2017-10-13T19:18:40.731Z,15.80
2017-10-13T19:20:43.443Z,15.80
2017-10-13T19:22:46.163Z,15.80
2017-10-13T19:24:48.863Z,15.80
2017-10-13T19:26:51.585Z,15.80
2017-10-13T19:28:55.435Z,15.80
2017-10-13T19:30:58.309Z,15.80
2017-10-13T19:33:00.998Z,15.80
2017-10-13T19:35:03.771Z,15.80
2017-10-13T19:37:06.510Z,15.80
2017-10-13T19:39:09.290Z,15.80
2017-10-13T19:41:12.031Z,15.80
2017-10-13T19:43:15.463Z,15.70
2017-10-13T19:45:18.145Z,15.70
2017-10-13T19:47:20.978Z,15.70
2017-10-13T19:49:24.511Z,15.70
2017-10-13T19:51:27.233Z,15.70
2017-10-13T19:53:29.902Z,15.70
2017-10-13T19:55:32.724Z,15.70
2017-10-13T19:57:36.145Z,15.60
2017-10-13T19:59:38.844Z,15.60
2017-10-13T20:01:41.612Z,15.60
2017-10-13T20:03:44.272Z,15.60
2017-10-13T20:05:47.048Z,15.60
2017-10-13T20:07:49.823Z,15.50
2017-10-13T20:09:52.605Z,15.50
2017-10-13T20:11:55.408Z,15.50
2017-10-13T20:13:58.109Z,15.50
2017-10-13T20:16:00.890Z,15.50
2017-10-13T20:18:03.761Z,15.50
2017-10-13T20:20:06.422Z,15.50
2017-10-13T20:22:09.209Z,15.50
2017-10-13T20:24:12.876Z,15.50
2017-10-13T20:26:15.565Z,15.50
2017-10-13T20:28:18.437Z,15.50
2017-10-13T20:30:21.181Z,15.60
2017-10-13T20:32:24.617Z,15.50
2017-10-13T20:34:27.322Z,15.50
2017-10-13T20:36:30.020Z,15.50
2017-10-13T20:38:33.469Z,15.50
2017-10-13T20:40:36.282Z,15.40
2017-10-13T20:42:39.957Z,15.40
2017-10-13T20:44:42.626Z,15.40
2017-10-13T20:46:45.281Z,15.40
2017-10-13T20:48:47.996Z,15.50
2017-10-13T20:50:50.637Z,15.50
2017-10-13T20:52:53.406Z,15.40
2017-10-13T20:54:56.155Z,15.40
2017-10-13T20:56:59.573Z,15.30
2017-10-13T20:59:02.568Z,15.30
2017-10-13T21:01:05.290Z,15.30
2017-10-13T21:03:07.954Z,15.20
2017-10-13T21:05:11.407Z,15.20
2017-10-13T21:07:14.195Z,15.10
2017-10-13T21:09:16.973Z,15.10
2017-10-13T21:11:19.750Z,15.10
2017-10-13T21:13:22.531Z,15.00
2017-10-13T21:15:25.306Z,15.00
2017-10-13T21:17:27.950Z,15.00
2017-10-13T21:19:31.605Z,15.00
2017-10-13T21:21:34.284Z,15.00
2017-10-13T21:23:37.051Z,14.90
2017-10-13T21:25:39.889Z,14.90
2017-10-13T21:27:42.550Z,14.90
2017-10-13T21:29:45.271Z,15.00
2017-10-13T21:31:47.955Z,15.00
2017-10-13T21:33:50.618Z,15.00
2017-10-13T21:35:53.353Z,14.90
2017-10-13T21:37:56.798Z,14.90
2017-10-13T21:40:01.672Z,14.80
2017-10-13T21:42:04.383Z,14.90
2017-10-13T21:44:07.157Z,14.90
2017-10-13T21:46:09.887Z,14.90
2017-10-13T21:48:12.554Z,14.90
2017-10-13T21:50:15.233Z,14.90
2017-10-13T21:52:17.898Z,14.90
2017-10-13T21:54:20.607Z,14.90
2017-10-13T21:56:24.853Z,14.90
2017-10-13T21:58:28.283Z,14.80
2017-10-13T22:00:30.959Z,14.80
2017-10-13T22:02:33.646Z,14.80
2017-10-13T22:04:36.573Z,14.80
2017-10-13T22:06:40.015Z,14.70
2017-10-13T22:08:42.771Z,14.70
2017-10-13T22:10:45.594Z,14.70
2017-10-13T22:12:48.331Z,14.60
2017-10-13T22:14:51.077Z,14.60
2017-10-13T22:16:54.629Z,14.50
2017-10-13T22:18:57.280Z,14.50
2017-10-13T22:21:00.152Z,14.50
2017-10-13T22:23:02.871Z,14.50
2017-10-13T22:25:05.522Z,14.50
2017-10-13T22:27:08.319Z,14.50
2017-10-13T22:29:10.994Z,14.50
2017-10-13T22:31:13.721Z,14.40
2017-10-13T22:33:17.188Z,14.30
2017-10-13T22:35:20.040Z,14.30
2017-10-13T22:37:22.838Z,14.30
2017-10-13T22:39:25.528Z,14.20
2017-10-13T22:41:29.700Z,14.10
2017-10-13T22:43:32.358Z,14.10
2017-10-13T22:45:35.328Z,14.10
2017-10-13T22:47:39.048Z,14.10
2017-10-13T22:49:41.826Z,14.10
2017-10-13T22:51:44.602Z,14.00
2017-10-13T22:53:47.277Z,14.00
2017-10-13T22:55:50.119Z,14.10
2017-10-13T22:57:52.910Z,14.10
2017-10-13T22:59:56.459Z,14.10
2017-10-13T23:01:59.324Z,14.10
2017-10-13T23:04:02.123Z,14.20
2017-10-13T23:06:04.971Z,14.20
2017-10-13T23:08:07.656Z,14.30
2017-10-13T23:10:10.363Z,14.30
2017-10-13T23:12:13.163Z,14.30
2017-10-13T23:14:15.823Z,14.40
2017-10-13T23:16:18.495Z,14.50
2017-10-13T23:18:21.371Z,14.50
2017-10-13T23:20:24.018Z,14.50
2017-10-13T23:22:26.688Z,14.50
2017-10-13T23:24:29.470Z,14.50
2017-10-13T23:26:32.155Z,14.50
2017-10-13T23:28:34.885Z,14.50
2017-10-13T23:30:38.338Z,14.50
2017-10-13T23:32:41.001Z,14.50
2017-10-13T23:34:43.915Z,14.50
2017-10-13T23:36:46.604Z,14.50
2017-10-13T23:38:49.296Z,14.50
2017-10-13T23:40:52.075Z,14.50
2017-10-13T23:42:55.528Z,14.40
2017-10-13T23:44:58.340Z,14.40
2017-10-13T23:47:00.999Z,14.40
2017-10-13T23:49:03.846Z,14.40
2017-10-13T23:51:06.564Z,14.40
2017-10-13T23:53:09.209Z,14.40
2017-10-13T23:55:12.000Z,14.30
2017-10-13T23:57:14.650Z,14.30
2017-10-13T23:59:17.302Z,14.40
